Time;durP1;ratioP1;P1;durP2;ratioP2;P2;SDS_P1;SDS_P2;PMS_P1;PMS_P2;Temp;Humidity;BMP_temperature;BMP_pressure;BME280_temperature;BME280_humidity;BME280_pressure;Samples;Min_cycle;Max_cycle;Signal;HPM_P1;HPM_P2
2021/09/20 00:01:53;;;;;;;17.15;2.58;;;15.10;99.90;;;;;;4957951;28;20020;-78
2021/09/20 00:04:19;;;;;;;14.88;2.30;;;15.20;99.90;;;;;;4957917;28;20496;-78
2021/09/20 00:06:45;;;;;;;17.35;3.35;;;15.30;99.90;;;;;;4957978;28;20459;-78
2021/09/20 00:09:11;;;;;;;13.02;2.40;;;15.40;99.90;;;;;;4957770;28;20055;-78
2021/09/20 00:11:37;;;;;;;15.80;2.47;;;15.40;99.90;;;;;;4957692;28;20035;-78
2021/09/20 00:14:02;;;;;;;14.93;2.92;;;15.30;99.90;;;;;;4957755;28;20039;-78
2021/09/20 00:16:28;;;;;;;;;;;15.20;99.90;;;;;;4957989;28;20078;-78
2021/09/20 00:18:54;;;;;;;13.15;2.22;;;14.90;99.90;;;;;;4957651;29;19914;-78
2021/09/20 00:21:20;;;;;;;13.65;2.10;;;14.80;99.90;;;;;;4957555;28;20034;-78
2021/09/20 00:23:45;;;;;;;12.52;2.20;;;14.80;99.90;;;;;;4957720;29;20059;-78
2021/09/20 00:26:11;;;;;;;16.50;2.30;;;14.80;99.90;;;;;;4957508;29;20041;-78
2021/09/20 00:28:38;;;;;;;9.45;2.08;;;14.70;99.90;;;;;;4957364;29;20496;-78
2021/09/20 00:31:03;;;;;;;13.45;2.00;;;14.70;99.90;;;;;;4940112;29;20396;-78
2021/09/20 00:33:30;;;;;;;11.50;2.17;;;14.50;99.90;;;;;;4957026;29;20027;-78
2021/09/20 00:35:56;;;;;;;15.57;2.17;;;14.40;99.90;;;;;;4957260;28;20032;-78
2021/09/20 00:38:21;;;;;;;16.55;2.60;;;14.40;99.90;;;;;;4957245;28;20180;-78
2021/09/20 00:40:48;;;;;;;14.52;2.10;;;14.40;99.90;;;;;;4957210;28;20027;-78
2021/09/20 00:43:14;;;;;;;15.75;2.35;;;14.40;99.90;;;;;;4957153;29;20019;-78
2021/09/20 00:45:39;;;;;;;13.40;2.10;;;14.30;99.90;;;;;;4957341;28;20085;-78
2021/09/20 00:48:05;;;;;;;12.73;2.08;;;14.30;99.90;;;;;;4957113;29;20061;-78
2021/09/20 00:50:31;;;;;;;16.02;2.45;;;14.30;99.90;;;;;;4957001;29;20027;-78
2021/09/20 00:52:57;;;;;;;8.77;1.73;;;14.50;99.90;;;;;;4956973;28;20027;-78
2021/09/20 00:55:23;;;;;;;14.65;2.17;;;14.50;99.90;;;;;;4956786;29;20396;-78
2021/09/20 00:57:49;;;;;;;12.98;2.20;;;14.40;99.90;;;;;;4956790;29;20043;-78
2021/09/20 01:00:16;;;;;;;14.57;2.20;;;14.20;99.90;;;;;;4956857;28;20086;-78
2021/09/20 01:02:42;;;;;;;15.77;2.15;;;14.10;99.90;;;;;;4956712;28;20030;-78
2021/09/20 01:05:08;;;;;;;;;;;14.10;99.90;;;;;;4957182;29;20030;-78
2021/09/20 01:07:35;;;;;;;17.40;2.70;;;14.10;99.90;;;;;;4956704;29;19910;-78
2021/09/20 01:10:00;;;;;;;;;;;14.10;99.90;;;;;;4957191;29;20124;-78
2021/09/20 01:12:27;;;;;;;14.07;2.10;;;14.20;99.90;;;;;;4956600;29;19998;-77
2021/09/20 01:14:56;;;;;;;12.82;2.30;;;14.20;99.90;;;;;;4956512;29;20195;-78
2021/09/20 01:17:22;;;;;;;15.35;2.30;;;14.10;99.90;;;;;;4939280;29;20110;-78
2021/09/20 01:19:48;;;;;;;13.30;2.15;;;14.10;99.90;;;;;;4956594;29;20444;-78
2021/09/20 01:22:16;;;;;;;13.05;2.00;;;14.10;99.90;;;;;;4956085;28;20020;-78
2021/09/20 01:24:42;;;;;;;12.93;2.33;;;14.20;99.90;;;;;;4956400;29;20028;-78
2021/09/20 01:27:08;;;;;;;11.23;1.80;;;14.00;99.90;;;;;;4956335;28;20034;-78
2021/09/20 01:29:34;;;;;;;9.55;1.65;;;14.00;99.90;;;;;;4956316;29;20480;-78
2021/09/20 01:32:04;;;;;;;13.77;2.13;;;14.00;99.90;;;;;;4939029;29;20033;-78
2021/09/20 01:34:30;;;;;;;11.82;1.90;;;14.00;99.90;;;;;;4956146;29;20526;-78
2021/09/20 01:36:56;;;;;;;14.40;2.03;;;14.00;99.90;;;;;;4956134;28;20019;-78
2021/09/20 01:39:24;;;;;;;13.48;2.15;;;14.10;99.90;;;;;;4956222;29;20103;-78
2021/09/20 01:41:51;;;;;;;10.18;1.92;;;13.90;99.90;;;;;;4956112;28;20027;-78
2021/09/20 01:44:17;;;;;;;11.40;1.90;;;13.90;99.90;;;;;;4955985;29;20027;-78
2021/09/20 01:46:44;;;;;;;11.52;1.98;;;14.00;99.90;;;;;;4955943;29;20023;-78
2021/09/20 01:49:11;;;;;;;13.85;2.03;;;14.00;99.90;;;;;;4955910;28;20035;-78
2021/09/20 01:51:37;;;;;;;12.77;2.08;;;14.10;99.90;;;;;;4955916;28;20105;-78
2021/09/20 01:54:04;;;;;;;11.68;2.20;;;14.00;99.90;;;;;;4955798;29;20031;-78
2021/09/20 01:56:31;;;;;;;13.45;2.05;;;14.10;99.90;;;;;;4955778;29;20472;-78
2021/09/20 01:58:57;;;;;;;11.63;2.10;;;14.10;99.90;;;;;;4955393;28;20094;-78
2021/09/20 02:01:23;;;;;;;;;;;13.90;99.90;;;;;;4956201;29;20034;-78
2021/09/20 02:03:51;;;;;;;10.57;2.33;;;13.70;99.90;;;;;;4955864;29;19906;-78
2021/09/20 02:06:17;;;;;;;12.20;2.00;;;13.90;99.90;;;;;;4955694;29;20061;-78
2021/09/20 02:08:43;;;;;;;;;;;13.90;99.90;;;;;;4956029;29;20027;-77
2021/09/20 02:11:09;;;;;;;17.60;2.47;;;14.20;99.90;;;;;;4955645;29;19907;-78
2021/09/20 02:13:35;;;;;;;;;;;14.00;99.90;;;;;;4955895;29;20042;-77
2021/09/20 02:16:00;;;;;;;9.93;1.90;;;14.20;99.90;;;;;;4955527;28;20350;-77
2021/09/20 02:18:27;;;;;;;8.82;1.80;;;14.20;99.90;;;;;;4955539;28;20026;-78
2021/09/20 02:20:53;;;;;;;10.23;1.65;;;14.20;99.90;;;;;;4955465;29;20034;-78
2021/09/20 02:23:19;;;;;;;12.65;2.05;;;14.30;99.90;;;;;;4938219;29;20031;-78
2021/09/20 02:25:45;;;;;;;11.57;2.17;;;14.10;99.90;;;;;;4955390;28;20035;-78
2021/09/20 02:28:11;;;;;;;9.05;1.90;;;14.10;99.90;;;;;;4938088;29;20112;-78
2021/09/20 02:30:37;;;;;;;11.68;1.95;;;14.20;99.90;;;;;;4938116;29;20186;-78
2021/09/20 02:33:03;;;;;;;10.07;1.83;;;14.20;99.90;;;;;;4955337;29;20524;-78
2021/09/20 02:35:29;;;;;;;;;;;14.20;99.90;;;;;;4954841;28;20039;-77
2021/09/20 02:37:55;;;;;;;10.10;2.05;;;14.10;99.90;;;;;;4955417;29;20279;-78
2021/09/20 02:40:20;;;;;;;;;;;13.90;99.90;;;;;;4955604;28;20031;-78
2021/09/20 02:42:46;;;;;;;8.75;1.85;;;13.70;99.90;;;;;;4955419;28;19906;-77
2021/09/20 02:45:13;;;;;;;12.43;2.38;;;13.60;99.90;;;;;;4955275;29;20027;-78
2021/09/20 02:47:39;;;;;;;8.93;1.90;;;13.80;99.90;;;;;;4955168;29;20024;-78
2021/09/20 02:50:06;;;;;;;10.43;2.00;;;14.00;99.90;;;;;;4955224;28;20062;-78
2021/09/20 02:52:32;;;;;;;11.45;1.98;;;13.90;99.90;;;;;;4955105;29;20024;-78
2021/09/20 02:54:58;;;;;;;8.05;1.70;;;13.70;99.90;;;;;;4954950;28;20475;-78
2021/09/20 02:57:24;;;;;;;9.98;1.80;;;13.70;99.90;;;;;;4955005;28;20086;-77
2021/09/20 02:59:50;;;;;;;13.90;2.30;;;13.70;99.90;;;;;;4955094;28;20119;-78
2021/09/20 03:02:16;;;;;;;13.23;1.95;;;13.60;99.90;;;;;;4955052;29;20090;-78
2021/09/20 03:04:41;;;;;;;13.32;2.33;;;13.50;99.90;;;;;;4937806;29;20037;-78
2021/09/20 03:07:07;;;;;;;10.27;1.70;;;13.50;99.90;;;;;;4954951;29;20023;-77
2021/09/20 03:09:33;;;;;;;14.27;2.08;;;13.40;99.90;;;;;;4954988;29;20043;-78
2021/09/20 03:12:00;;;;;;;11.43;2.20;;;13.40;99.90;;;;;;4954947;28;20027;-78
2021/09/20 03:14:25;;;;;;;14.13;2.30;;;13.20;99.90;;;;;;4937608;29;20454;-78
2021/09/20 03:16:52;;;;;;;17.52;2.72;;;13.20;99.90;;;;;;4954898;28;20020;-78
2021/09/20 03:19:17;;;;;;;10.52;1.90;;;13.30;99.90;;;;;;4954873;28;20035;-78
2021/09/20 03:21:43;;;;;;;11.50;1.75;;;13.40;99.90;;;;;;4954834;29;20369;-78
2021/09/20 03:24:10;;;;;;;10.70;1.67;;;13.50;99.90;;;;;;4937633;29;20073;-78
2021/09/20 03:26:37;;;;;;;10.93;1.80;;;13.70;99.90;;;;;;4954820;28;20027;-78
2021/09/20 03:29:03;;;;;;;10.95;1.98;;;13.80;99.90;;;;;;4937649;29;20023;-78
2021/09/20 03:31:30;;;;;;;9.73;1.90;;;13.60;99.90;;;;;;4954783;29;20026;-78
2021/09/20 03:33:55;;;;;;;14.10;2.72;;;13.40;99.90;;;;;;4954641;28;20074;-78
2021/09/20 03:36:21;;;;;;;14.52;2.17;;;13.40;99.90;;;;;;4954936;29;20094;-78
2021/09/20 03:38:47;;;;;;;11.23;1.98;;;13.50;99.90;;;;;;4937389;29;20023;-78
2021/09/20 03:41:13;;;;;;;9.88;1.83;;;13.60;99.90;;;;;;4937502;29;20027;-78
2021/09/20 03:43:39;;;;;;;10.13;2.08;;;13.50;99.90;;;;;;4954628;29;20067;-78
2021/09/20 03:46:04;;;;;;;13.85;2.50;;;13.70;99.90;;;;;;4938612;29;20055;-77
2021/09/20 03:48:30;;;;;;;11.90;3.08;;;13.70;99.90;;;;;;4958157;28;20381;-78
2021/09/20 03:50:56;;;;;;;12.27;2.40;;;13.50;99.90;;;;;;4958146;29;20037;-77
2021/09/20 03:53:22;;;;;;;14.05;3.50;;;13.40;99.90;;;;;;4958012;29;20106;-78
2021/09/20 03:55:48;;;;;;;12.15;3.50;;;13.40;99.90;;;;;;4957923;28;20054;-78
2021/09/20 03:58:13;;;;;;;13.20;3.55;;;13.30;99.90;;;;;;4957798;28;20524;-78
2021/09/20 04:00:39;;;;;;;10.90;3.00;;;13.20;99.90;;;;;;4957977;29;20023;-77
2021/09/20 04:03:05;;;;;;;10.68;2.97;;;13.20;99.90;;;;;;4958098;28;20020;-78
2021/09/20 04:05:31;;;;;;;12.15;2.70;;;13.40;99.90;;;;;;4958032;28;20086;-80
2021/09/20 04:07:57;;;;;;;15.20;3.03;;;13.40;99.90;;;;;;4957790;29;20534;-80
2021/09/20 04:10:22;;;;;;;13.57;3.28;;;13.20;99.90;;;;;;4957762;29;20058;-78
2021/09/20 04:12:48;;;;;;;16.08;3.25;;;13.20;99.90;;;;;;4940495;29;20038;-77
2021/09/20 04:15:14;;;;;;;12.50;3.33;;;13.10;99.90;;;;;;4957623;28;20031;-78
2021/09/20 04:17:40;;;;;;;13.77;3.65;;;13.10;99.90;;;;;;4957702;29;20082;-78
2021/09/20 04:20:07;;;;;;;15.85;4.95;;;13.00;99.90;;;;;;4957573;28;20030;-78
2021/09/20 04:22:33;;;;;;;13.93;4.60;;;13.00;99.90;;;;;;4957541;29;20098;-77
2021/09/20 04:24:59;;;;;;;17.40;4.65;;;13.10;99.90;;;;;;4940301;29;20079;-78
2021/09/20 04:27:24;;;;;;;20.80;5.35;;;13.10;99.90;;;;;;4940232;29;20032;-78
2021/09/20 04:29:50;;;;;;;16.67;4.72;;;13.00;99.90;;;;;;4957461;29;20031;-78
2021/09/20 04:32:16;;;;;;;15.98;4.68;;;13.10;99.90;;;;;;4940193;29;20403;-78
2021/09/20 04:34:42;;;;;;;18.30;5.50;;;13.10;99.90;;;;;;4957445;29;20029;-78
2021/09/20 04:37:08;;;;;;;18.58;5.80;;;13.00;99.90;;;;;;4957519;29;20110;-78
2021/09/20 04:39:34;;;;;;;16.13;5.50;;;12.90;99.90;;;;;;4940049;29;20028;-78
2021/09/20 04:42:02;;;;;;;15.35;5.43;;;13.10;99.90;;;;;;4939994;29;20027;-78
2021/09/20 04:44:28;;;;;;;18.02;5.85;;;13.00;99.90;;;;;;4957141;29;20028;-78
2021/09/20 04:46:54;;;;;;;18.33;5.00;;;13.00;99.90;;;;;;4957282;29;20035;-78
2021/09/20 04:49:19;;;;;;;16.02;5.03;;;13.00;99.90;;;;;;4957294;29;20030;-77
2021/09/20 04:51:45;;;;;;;16.58;4.20;;;13.10;99.90;;;;;;4939800;29;20451;-78
2021/09/20 04:54:11;;;;;;;17.75;5.15;;;13.30;99.90;;;;;;4956814;28;20062;-78
2021/09/20 04:56:37;;;;;;;14.45;3.78;;;13.20;99.90;;;;;;4956936;28;20563;-78
2021/09/20 04:59:03;;;;;;;13.80;4.00;;;13.20;99.90;;;;;;4955722;29;20047;-77
2021/09/20 05:01:29;;;;;;;17.42;3.95;;;13.20;99.90;;;;;;4956875;29;20028;-78
2021/09/20 05:03:54;;;;;;;15.50;2.97;;;13.30;99.90;;;;;;4956843;29;20023;-78
2021/09/20 05:06:20;;;;;;;17.35;2.85;;;13.40;99.90;;;;;;4957306;29;20443;-77
2021/09/20 05:08:46;;;;;;;17.67;2.85;;;13.60;99.90;;;;;;4956696;29;20475;-78
2021/09/20 05:11:12;;;;;;;15.07;2.65;;;13.30;99.90;;;;;;4956664;28;20039;-78
2021/09/20 05:13:39;;;;;;;11.90;2.47;;;13.40;99.90;;;;;;4939307;29;20110;-78
2021/09/20 05:16:05;;;;;;;9.63;2.15;;;13.50;99.90;;;;;;4956575;28;20065;-78
2021/09/20 05:18:30;;;;;;;19.02;2.88;;;13.30;99.90;;;;;;4939272;29;20047;-78
2021/09/20 05:20:56;;;;;;;14.02;2.53;;;13.40;99.90;;;;;;4956709;28;20027;-78
2021/09/20 05:23:22;;;;;;;14.23;2.58;;;13.50;99.90;;;;;;4956421;29;20031;-78
2021/09/20 05:25:48;;;;;;;20.13;2.60;;;13.30;99.90;;;;;;4956404;28;20395;-77
2021/09/20 05:28:14;;;;;;;;;;;13.20;99.90;;;;;;4956789;28;20026;-77
2021/09/20 05:30:39;;;;;;;13.43;2.58;;;13.00;99.90;;;;;;4956363;28;19906;-77
2021/09/20 05:33:05;;;;;;;12.43;2.78;;;12.90;99.90;;;;;;4956534;28;20038;-77
2021/09/20 05:35:31;;;;;;;17.45;3.40;;;13.00;99.90;;;;;;4956206;28;20032;-78
2021/09/20 05:37:57;;;;;;;13.65;2.97;;;12.90;99.90;;;;;;4956142;29;20155;-77
2021/09/20 05:40:23;;;;;;;14.13;3.03;;;12.90;99.90;;;;;;4938907;29;20392;-80
2021/09/20 05:42:49;;;;;;;;;;;12.90;99.90;;;;;;4956550;29;20019;-80
2021/09/20 05:45:15;;;;;;;11.43;3.00;;;13.00;99.90;;;;;;4956113;29;20394;-77
2021/09/20 05:47:41;;;;;;;13.73;2.95;;;12.90;99.90;;;;;;4956202;29;20023;-78
2021/09/20 05:50:09;;;;;;;13.48;3.20;;;13.00;99.90;;;;;;4956048;29;20134;-77
2021/09/20 05:52:35;;;;;;;13.45;2.92;;;13.00;99.90;;;;;;4956191;29;20082;-77
2021/09/20 05:55:00;;;;;;;;;;;13.00;99.90;;;;;;4938974;29;20086;-80
2021/09/20 05:57:26;;;;;;;13.85;2.45;;;13.30;99.90;;;;;;4955768;28;19918;-80
2021/09/20 05:59:52;;;;;;;;;;;13.20;99.90;;;;;;4956118;29;20051;-77
2021/09/20 06:02:18;;;;;;;13.48;2.33;;;13.10;99.90;;;;;;4955779;29;19952;-77
2021/09/20 06:04:44;;;;;;;15.63;2.40;;;13.10;99.90;;;;;;4955543;28;20411;-77
2021/09/20 06:07:10;;;;;;;;;;;13.10;99.90;;;;;;4956083;29;20612;-77
2021/09/20 06:09:36;;;;;;;14.95;2.95;;;13.10;99.90;;;;;;4955601;28;19910;-78
2021/09/20 06:12:05;;;;;;;16.02;3.38;;;13.20;99.90;;;;;;4955664;29;20476;-77
2021/09/20 06:14:32;;;;;;;15.02;3.70;;;13.30;99.90;;;;;;4955470;29;20447;-77
2021/09/20 06:16:58;;;;;;;12.70;3.80;;;13.30;99.90;;;;;;4955549;29;20023;-78
2021/09/20 06:19:24;;;;;;;17.17;3.92;;;13.30;99.90;;;;;;4955641;28;20508;-78
2021/09/20 06:21:50;;;;;;;13.55;4.15;;;13.40;99.90;;;;;;4955453;29;20023;-78
2021/09/20 06:24:17;;;;;;;17.52;4.57;;;13.50;99.90;;;;;;4955429;29;20059;-78
2021/09/20 06:26:43;;;;;;;19.90;4.35;;;13.60;99.90;;;;;;4955597;28;20484;-78
2021/09/20 06:29:10;;;;;;;;;;;13.60;99.90;;;;;;4955746;29;20034;-78
2021/09/20 06:31:36;;;;;;;11.85;2.42;;;14.10;99.90;;;;;;4955619;29;20311;-78
2021/09/20 06:34:02;;;;;;;13.98;2.22;;;14.20;99.90;;;;;;4955275;29;20500;-78
2021/09/20 06:36:28;;;;;;;12.50;2.00;;;14.70;99.90;;;;;;4955250;28;20019;-78
2021/09/20 06:38:54;;;;;;;;;;;15.20;99.90;;;;;;4955692;29;20031;-78
2021/09/20 06:41:20;;;;;;;10.40;2.40;;;15.50;99.90;;;;;;4955518;29;19907;-78
2021/09/20 06:43:45;;;;;;;;;;;15.70;99.90;;;;;;4938382;29;20074;-78
2021/09/20 06:46:11;;;;;;;12.50;2.63;;;15.40;99.90;;;;;;4955285;29;19910;-78
2021/09/20 06:48:39;;;;;;;19.30;3.75;;;15.40;99.90;;;;;;4955105;29;20035;-78
2021/09/20 06:51:05;;;;;;;13.32;3.20;;;15.50;99.90;;;;;;4955508;29;20023;-78
2021/09/20 06:53:31;;;;;;;17.15;3.80;;;15.60;99.90;;;;;;4937844;29;20078;-78
2021/09/20 06:55:57;;;;;;;;;;;15.50;99.90;;;;;;4955482;28;20031;-78
2021/09/20 06:58:22;;;;;;;15.68;3.20;;;15.60;99.90;;;;;;4937719;29;19918;-78
2021/09/20 07:00:48;;;;;;;;;;;15.70;99.90;;;;;;4955460;29;20483;-78
2021/09/20 07:03:14;;;;;;;12.65;2.35;;;15.80;99.90;;;;;;4955113;29;19906;-78
2021/09/20 07:05:40;;;;;;;;;;;15.80;99.90;;;;;;4955601;29;20026;-78
2021/09/20 07:08:06;;;;;;;10.45;2.40;;;16.00;99.90;;;;;;4954974;28;20001;-78
2021/09/20 07:10:31;;;;;;;;;;;16.20;99.90;;;;;;4955409;29;20115;-78
2021/09/20 07:12:57;;;;;;;13.30;2.88;;;16.50;99.90;;;;;;4954938;29;19913;-78
2021/09/20 07:15:23;;;;;;;;;;;16.40;99.90;;;;;;4938007;29;20067;-78
2021/09/20 07:17:48;;;;;;;16.02;2.85;;;15.90;99.90;;;;;;4955108;29;19913;-78
2021/09/20 07:20:14;;;;;;;;;;;16.30;99.90;;;;;;4938033;29;20047;-78
2021/09/20 07:22:43;;;;;;;14.77;3.30;;;16.30;99.90;;;;;;4958549;29;19910;-78
2021/09/20 07:25:09;;;;;;;15.75;3.00;;;16.40;99.90;;;;;;4958775;28;20019;-78
2021/09/20 07:27:35;;;;;;;15.77;2.90;;;16.70;99.90;;;;;;4958827;28;20027;-78
2021/09/20 07:30:00;;;;;;;;;;;16.80;99.90;;;;;;4958927;29;20086;-78
2021/09/20 07:32:26;;;;;;;13.98;2.65;;;17.00;99.90;;;;;;4958504;29;19906;-78
2021/09/20 07:34:52;;;;;;;;;;;17.20;99.90;;;;;;4959006;29;20054;-78
2021/09/20 07:37:18;;;;;;;14.35;2.83;;;17.60;99.90;;;;;;4958686;29;19957;-78
2021/09/20 07:39:43;;;;;;;13.30;2.78;;;18.10;99.90;;;;;;4958416;29;20491;-78
2021/09/20 07:42:09;;;;;;;12.80;2.72;;;18.70;99.90;;;;;;4958247;29;20034;-78
2021/09/20 07:44:36;;;;;;;11.80;2.35;;;19.90;99.90;;;;;;4958638;29;20034;-78
2021/09/20 07:47:02;;;;;;;14.73;2.90;;;20.80;99.90;;;;;;4958184;28;20023;-79
2021/09/20 07:49:28;;;;;;;11.07;2.70;;;21.90;99.90;;;;;;4958164;29;20034;-78
2021/09/20 07:51:53;;;;;;;12.25;2.67;;;22.70;98.10;;;;;;4958111;28;20396;-79
2021/09/20 07:54:19;;;;;;;10.85;2.47;;;23.50;96.50;;;;;;4957908;28;20046;-79
2021/09/20 07:56:45;;;;;;;11.75;2.42;;;24.70;95.30;;;;;;4958068;29;20377;-79
2021/09/20 07:59:11;;;;;;;9.15;2.40;;;25.50;93.00;;;;;;4940613;29;20055;-79
2021/09/20 08:01:36;;;;;;;8.63;2.22;;;26.00;91.70;;;;;;4940676;29;20048;-79
2021/09/20 08:04:02;;;;;;;10.00;2.15;;;26.20;90.50;;;;;;4957890;28;20031;-79
2021/09/20 08:06:28;;;;;;;10.07;2.40;;;26.60;90.10;;;;;;4957836;28;20030;-79
2021/09/20 08:08:55;;;;;;;9.98;2.33;;;27.40;85.80;;;;;;4957798;28;20090;-80
2021/09/20 08:11:20;;;;;;;11.38;2.70;;;28.00;83.70;;;;;;4940542;29;20069;-80
2021/09/20 08:13:46;;;;;;;11.02;2.63;;;27.90;80.80;;;;;;4957736;28;20055;-79
2021/09/20 08:16:12;;;;;;;13.80;2.72;;;28.60;79.10;;;;;;4940530;29;20031;-79
2021/09/20 08:18:38;;;;;;;8.35;2.17;;;27.90;78.30;;;;;;4940338;29;20081;-79
2021/09/20 08:21:06;;;;;;;9.48;2.42;;;26.90;81.50;;;;;;4957836;28;20031;-79
2021/09/20 08:23:33;;;;;;;12.73;3.00;;;26.80;81.70;;;;;;4940282;29;20019;-80
2021/09/20 08:25:59;;;;;;;11.52;2.40;;;27.80;79.80;;;;;;4957517;28;20023;-79
2021/09/20 08:28:25;;;;;;;9.68;2.35;;;26.60;80.20;;;;;;4957722;29;20424;-79
2021/09/20 08:30:51;;;;;;;9.15;2.45;;;25.90;84.10;;;;;;4957432;28;20030;-79
2021/09/20 08:33:17;;;;;;;11.25;2.50;;;25.30;85.70;;;;;;4956286;28;20024;-79
2021/09/20 08:35:43;;;;;;;11.93;2.55;;;24.40;88.60;;;;;;4957303;29;20031;-79
2021/09/20 08:38:08;;;;;;;12.88;2.60;;;25.60;88.10;;;;;;4957533;28;20430;-79
2021/09/20 08:40:34;;;;;;;11.43;2.50;;;25.80;84.80;;;;;;4957581;28;20483;-79
2021/09/20 08:43:02;;;;;;;13.75;2.88;;;24.80;88.20;;;;;;4940030;29;20027;-79
2021/09/20 08:45:28;;;;;;;11.70;2.65;;;25.30;90.20;;;;;;4957154;28;20032;-79
2021/09/20 08:47:56;;;;;;;11.35;2.70;;;26.90;85.50;;;;;;4939939;29;20023;-79
2021/09/20 08:50:28;;;;;;;9.82;2.78;;;28.50;81.30;;;;;;4939855;29;20086;-80
2021/09/20 08:52:55;;;;;;;12.00;2.90;;;29.80;76.80;;;;;;4957150;28;20028;-80
2021/09/20 08:55:20;;;;;;;11.93;3.00;;;30.20;73.80;;;;;;4939508;29;20471;-80
2021/09/20 08:57:46;;;;;;;11.18;2.80;;;31.10;72.30;;;;;;4956730;28;20086;-80
2021/09/20 09:00:13;;;;;;;10.70;2.70;;;29.90;70.70;;;;;;4939612;29;20125;-79
2021/09/20 09:02:39;;;;;;;8.57;2.38;;;27.90;74.90;;;;;;4939643;29;20026;-79
2021/09/20 09:05:18;;;;;;;12.95;2.67;;;26.50;80.20;;;;;;4956840;28;20031;-79
2021/09/20 09:07:46;;;;;;;13.18;2.67;;;26.80;79.20;;;;;;4956922;29;20034;-79
2021/09/20 09:10:14;;;;;;;15.15;3.30;;;26.90;80.20;;;;;;4939417;29;20396;-79
2021/09/20 09:12:40;;;;;;;12.13;3.10;;;29.90;75.40;;;;;;4956719;29;20015;-80
2021/09/20 09:15:08;;;;;;;12.65;3.30;;;32.30;68.40;;;;;;4956520;28;20038;-80
2021/09/20 09:17:37;;;;;;;12.48;3.00;;;34.90;61.60;;;;;;4939382;29;20023;-80
2021/09/20 09:20:06;;;;;;;10.05;2.97;;;34.10;59.10;;;;;;4956518;29;20027;-80
2021/09/20 09:22:54;;;;;;;11.52;3.45;;;34.70;58.20;;;;;;4956814;29;20365;-80
2021/09/20 09:25:20;;;;;;;14.00;3.30;;;36.30;57.60;;;;;;4938950;29;20027;-80
2021/09/20 09:27:48;;;;;;;11.70;3.50;;;34.10;56.00;;;;;;4956379;29;20082;-80
2021/09/20 09:30:23;;;;;;;10.98;3.22;;;34.50;56.40;;;;;;4939096;29;20118;-80
2021/09/20 09:33:13;;;;;;;12.98;3.60;;;35.60;55.20;;;;;;4939064;29;20055;-80
2021/09/20 09:35:42;;;;;;;9.95;3.03;;;36.50;52.50;;;;;;4956224;29;20034;-80
2021/09/20 09:38:09;;;;;;;9.00;2.65;;;35.50;52.70;;;;;;4956367;29;20115;-80
2021/09/20 09:41:13;;;;;;;9.73;2.67;;;32.00;56.00;;;;;;4939115;29;20365;-80
2021/09/20 09:43:42;;;;;;;10.57;2.90;;;30.80;59.00;;;;;;4896768;29;20029;-80
2021/09/20 09:46:20;;;;;;;10.30;2.85;;;32.30;56.90;;;;;;4897039;29;20550;-80
2021/09/20 09:48:46;;;;;;;9.45;2.70;;;33.70;56.40;;;;;;4930920;29;20396;-80
2021/09/20 09:51:12;;;;;;;11.07;3.80;;;36.40;52.80;;;;;;4938753;29;20019;-81
2021/09/20 09:53:44;;;;;;;11.80;4.28;;;38.50;49.30;;;;;;4955813;28;20078;-81
2021/09/20 09:56:18;;;;;;;10.97;4.03;;;40.50;46.40;;;;;;4955940;29;20051;-81
2021/09/20 09:58:51;;;;;;;9.05;3.53;;;39.90;43.80;;;;;;4938336;29;20047;-81
2021/09/20 10:01:20;;;;;;;8.93;3.83;;;39.00;44.80;;;;;;4938516;29;20031;-81
2021/09/20 10:04:24;;;;;;;9.55;2.80;;;39.20;44.20;;;;;;4955733;28;20054;-81
2021/09/20 10:06:56;;;;;;;8.93;2.58;;;35.40;46.40;;;;;;4896645;29;20029;-80
2021/09/20 10:09:29;;;;;;;9.20;2.28;;;33.90;49.40;;;;;;4947107;29;20040;-80
2021/09/20 10:11:57;;;;;;;8.43;2.10;;;32.20;50.10;;;;;;4955805;29;20168;-80
2021/09/20 10:14:24;;;;;;;7.95;2.20;;;30.70;52.30;;;;;;4955756;28;20059;-80
2021/09/20 10:16:53;;;;;;;10.02;2.15;;;29.70;54.80;;;;;;4955551;28;20028;-80
2021/09/20 10:19:19;;;;;;;10.88;2.20;;;29.80;55.50;;;;;;4955486;29;20484;-80
2021/09/20 10:21:47;;;;;;;11.57;2.40;;;30.20;55.10;;;;;;4938275;29;20066;-80
2021/09/20 10:24:14;;;;;;;12.10;2.45;;;29.60;54.50;;;;;;4955495;28;20016;-80
2021/09/20 10:26:39;;;;;;;8.75;2.28;;;28.30;55.90;;;;;;4955730;29;20035;-79
2021/09/20 10:29:07;;;;;;;9.52;1.90;;;27.80;57.10;;;;;;4955395;29;20563;-79
2021/09/20 10:31:34;;;;;;;13.35;2.35;;;27.40;58.50;;;;;;4955341;29;20507;-79
2021/09/20 10:34:18;;;;;;;10.85;2.13;;;27.60;57.70;;;;;;4955293;28;20038;-79
2021/09/20 10:37:05;;;;;;;9.70;2.13;;;27.80;58.20;;;;;;4938112;29;20054;-79
2021/09/20 10:39:47;;;;;;;12.52;2.05;;;27.40;58.50;;;;;;4955410;29;20094;-79
2021/09/20 10:42:52;;;;;;;9.77;2.30;;;27.50;58.00;;;;;;4955281;29;20113;-80
2021/09/20 10:45:38;;;;;;;10.18;2.00;;;28.10;57.80;;;;;;4937940;29;20106;-80
2021/09/20 10:48:27;;;;;;;10.15;2.58;;;30.00;55.30;;;;;;4955419;28;20082;-80
2021/09/20 10:51:15;;;;;;;11.38;2.30;;;32.50;53.80;;;;;;4955291;29;20032;-81
2021/09/20 10:53:42;;;;;;;7.53;2.10;;;33.60;49.80;;;;;;4955107;29;20047;-80
2021/09/20 10:56:14;;;;;;;10.05;2.25;;;31.90;51.20;;;;;;4939228;29;20019;-80
2021/09/20 10:58:52;;;;;;;8.98;2.10;;;31.20;51.80;;;;;;4958652;29;20049;-80
2021/09/20 11:01:19;;;;;;;9.50;2.00;;;31.80;51.20;;;;;;4959088;28;20031;-80
2021/09/20 11:03:49;;;;;;;8.32;2.22;;;31.10;50.60;;;;;;4941800;29;20570;-80
2021/09/20 11:06:25;;;;;;;10.73;2.35;;;30.30;52.40;;;;;;4958984;28;20030;-80
2021/09/20 11:09:02;;;;;;;7.97;1.98;;;29.20;52.90;;;;;;4941400;29;20031;-79
2021/09/20 11:11:39;;;;;;;8.18;2.08;;;28.30;54.90;;;;;;4958877;28;20024;-79
2021/09/20 11:14:11;;;;;;;9.73;1.83;;;27.80;56.60;;;;;;4959013;29;20023;-79
2021/09/20 11:16:51;;;;;;;8.07;1.90;;;26.90;59.40;;;;;;4941448;29;20050;-79
2021/09/20 11:19:28;;;;;;;12.15;2.35;;;27.20;60.00;;;;;;4941450;29;20059;-79
2021/09/20 11:22:11;;;;;;;13.23;2.20;;;26.40;60.70;;;;;;4941468;29;20086;-79
2021/09/20 11:24:43;;;;;;;12.68;2.63;;;26.40;61.10;;;;;;4941191;29;20045;-79
2021/09/20 11:27:32;;;;;;;8.48;2.00;;;26.70;61.10;;;;;;4958672;28;20110;-79
2021/09/20 11:30:04;;;;;;;11.38;2.35;;;26.80;61.80;;;;;;4958821;29;20396;-79
2021/09/20 11:32:31;;;;;;;8.52;2.08;;;27.20;61.00;;;;;;4958537;28;20031;-80
2021/09/20 11:35:00;;;;;;;10.38;2.30;;;28.30;59.50;;;;;;4958355;29;20484;-79
2021/09/20 11:37:31;;;;;;;9.55;2.65;;;30.00;57.70;;;;;;4958359;29;20015;-80
2021/09/20 11:40:05;;;;;;;10.25;2.67;;;34.20;52.20;;;;;;4958672;29;20030;-80
2021/09/20 11:42:37;;;;;;;9.27;2.78;;;34.70;49.50;;;;;;4958583;29;20050;-81
2021/09/20 11:45:25;;;;;;;10.10;2.67;;;36.60;48.40;;;;;;4958410;28;20556;-81
2021/09/20 11:47:55;;;;;;;9.43;2.58;;;36.60;45.60;;;;;;4958195;28;20391;-81
2021/09/20 11:50:20;;;;;;;9.50;2.55;;;35.80;46.80;;;;;;4940756;29;20031;-81
2021/09/20 11:52:51;;;;;;;7.20;2.20;;;36.00;46.70;;;;;;4940909;29;20034;-80
2021/09/20 11:55:27;;;;;;;8.55;2.30;;;35.80;47.10;;;;;;4940571;29;20027;-80
2021/09/20 11:57:55;;;;;;;8.70;2.35;;;34.60;47.60;;;;;;4940476;29;20118;-81
2021/09/20 12:00:26;;;;;;;9.27;2.50;;;32.90;48.90;;;;;;4940814;29;20403;-80
2021/09/20 12:02:55;;;;;;;7.93;2.08;;;31.80;50.60;;;;;;4958122;29;20046;-80
2021/09/20 12:05:30;;;;;;;10.40;2.05;;;31.00;52.70;;;;;;4958143;29;20037;-80
2021/09/20 12:07:58;;;;;;;8.93;2.40;;;30.40;52.90;;;;;;4957639;28;20058;-80
2021/09/20 12:10:36;;;;;;;8.90;2.38;;;30.60;53.30;;;;;;4940522;29;20055;-80
2021/09/20 12:13:08;;;;;;;9.25;2.22;;;31.60;52.30;;;;;;4940511;29;20440;-80
2021/09/20 12:15:36;;;;;;;8.15;2.03;;;31.60;51.40;;;;;;4957723;29;20066;-80
2021/09/20 12:18:13;;;;;;;8.82;1.98;;;31.10;52.40;;;;;;4958167;29;20393;-80
2021/09/20 12:20:48;;;;;;;11.05;2.30;;;29.50;53.70;;;;;;4940227;29;20034;-79
2021/09/20 12:23:18;;;;;;;10.88;2.53;;;29.10;56.00;;;;;;4940385;29;20054;-80
2021/09/20 12:25:50;;;;;;;10.18;2.40;;;31.00;53.10;;;;;;4957562;28;20058;-80
2021/09/20 12:28:18;;;;;;;9.20;2.35;;;31.50;52.50;;;;;;4940320;29;20031;-80
2021/09/20 12:30:54;;;;;;;9.90;2.60;;;31.90;51.20;;;;;;4957654;28;20038;-80
2021/09/20 12:33:20;;;;;;;8.73;2.85;;;33.90;50.70;;;;;;4957619;28;20081;-80
2021/09/20 12:35:46;;;;;;;9.20;3.08;;;38.60;44.40;;;;;;4957352;28;20031;-81
2021/09/20 12:38:41;;;;;;;9.30;3.10;;;41.20;42.70;;;;;;4940126;29;20100;-81
2021/09/20 12:41:14;;;;;;;8.75;2.95;;;41.60;41.00;;;;;;4931563;29;20063;-81
2021/09/20 12:43:41;;;;;;;8.85;3.58;;;39.20;41.20;;;;;;4957380;29;20034;-81
2021/09/20 12:46:13;;;;;;;7.90;3.95;;;40.80;40.80;;;;;;4939961;29;20396;-81
2021/09/20 12:48:42;;;;;;;11.15;6.40;;;44.10;39.30;;;;;;4957203;29;20022;-82
2021/09/20 12:51:11;;;;;;;9.15;6.18;;;47.60;37.30;;;;;;4957161;29;20079;-81